Time;durP1;ratioP1;P1;durP2;ratioP2;P2;SDS_P1;SDS_P2;PMS_P1;PMS_P2;Temp;Humidity;BMP_temperature;BMP_pressure;BME280_temperature;BME280_humidity;BME280_pressure;Samples;Min_cycle;Max_cycle;Signal;HPM_P1;HPM_P2
2023/09/17 00:01:01;;;;;;;7.60;6.80;;;;;;;17.81;76.95;100794.09;5094910;28;20208;-75
2023/09/17 00:03:30;;;;;;;7.63;6.50;;;;;;;17.80;77.85;100792.44;5094774;28;20221;-75
2023/09/17 00:06:00;;;;;;;7.60;6.90;;;;;;;17.73;77.30;100793.25;5094815;28;20239;-75
2023/09/17 00:08:28;;;;;;;7.27;6.60;;;;;;;17.76;77.70;100783.03;5094341;28;20644;-75
2023/09/17 00:10:57;;;;;;;7.63;6.90;;;;;;;17.73;78.87;100787.84;5094706;28;20292;-75
2023/09/17 00:13:25;;;;;;;8.43;7.53;;;;;;;17.72;77.63;100788.03;5094609;28;20274;-75
2023/09/17 00:15:54;;;;;;;8.07;7.27;;;;;;;17.64;78.66;100780.94;5094516;28;20205;-75
2023/09/17 00:18:22;;;;;;;8.13;7.33;;;;;;;17.59;79.41;100780.72;5094585;28;20211;-75
2023/09/17 00:20:51;;;;;;;7.70;6.90;;;;;;;17.67;79.25;100783.22;5094759;28;20247;-75
2023/09/17 00:23:21;;;;;;;8.00;7.23;;;;;;;17.70;78.66;100785.56;5094433;28;20228;-75
2023/09/17 00:25:49;;;;;;;8.10;7.30;;;;;;;17.82;78.47;100784.91;5094403;28;20333;-74
2023/09/17 00:28:18;;;;;;;8.10;7.17;;;;;;;17.90;77.98;100787.44;5094347;28;20228;-74
2023/09/17 00:30:46;;;;;;;8.33;6.87;;;;;;;17.89;77.52;100783.06;5094384;28;20702;-75
2023/09/17 00:33:15;;;;;;;8.77;7.10;;;;;;;17.70;78.09;100782.84;5093976;28;20232;-75
2023/09/17 00:35:44;;;;;;;9.87;7.77;;;;;;;17.57;79.15;100788.19;5093755;28;20557;-75
2023/09/17 00:38:13;;;;;;;8.23;7.43;;;;;;;17.62;78.78;100783.03;5093898;28;20750;-75
2023/09/17 00:40:43;;;;;;;8.53;7.83;;;;;;;17.58;79.68;100784.47;5094196;28;20295;-75
2023/09/17 00:43:11;;;;;;;8.53;7.70;;;;;;;17.62;79.08;100785.72;5093771;28;20714;-75
2023/09/17 00:45:41;;;;;;;8.23;7.27;;;;;;;17.64;78.44;100777.38;5094087;28;20204;-75
2023/09/17 00:48:12;;;;;;;9.10;8.30;;;;;;;17.57;78.51;100790.91;5093944;28;20224;-75
2023/09/17 00:50:41;;;;;;;8.43;7.67;;;;;;;17.39;81.00;100782.53;5094019;28;20280;-75
2023/09/17 00:53:10;;;;;;;8.90;8.10;;;;;;;17.41;80.31;100785.00;5093924;28;20403;-75
2023/09/17 00:55:39;;;;;;;9.27;7.47;;;;;;;17.50;79.58;100781.09;5093908;28;20287;-75
2023/09/17 00:58:09;;;;;;;10.23;9.17;;;;;;;17.45;79.59;100784.41;5093885;28;20209;-75
2023/09/17 01:00:38;;;;;;;8.50;7.73;;;;;;;17.39;80.09;100777.09;5093843;28;20378;-75
2023/09/17 01:03:07;;;;;;;8.83;7.97;;;;;;;17.33;80.33;100774.38;5093753;28;20225;-75
2023/09/17 01:05:41;;;;;;;9.70;8.70;;;;;;;17.23;80.96;100774.75;5093529;28;20208;-75
2023/09/17 01:08:10;;;;;;;9.20;8.40;;;;;;;17.21;81.89;100771.41;5093669;28;20241;-75
2023/09/17 01:10:40;;;;;;;8.73;7.80;;;;;;;17.38;80.58;100770.00;5093711;28;20208;-75
2023/09/17 01:13:10;;;;;;;8.47;7.60;;;;;;;17.45;79.63;100768.16;5093842;28;20224;-75
2023/09/17 01:15:39;;;;;;;9.53;8.20;;;;;;;17.33;79.51;100772.47;5093662;28;20270;-75
2023/09/17 01:18:10;;;;;;;9.37;8.27;;;;;;;17.16;80.86;100765.75;5093639;28;20211;-75
2023/09/17 01:20:45;;;;;;;9.50;8.60;;;;;;;17.24;80.61;100765.59;5093654;28;20193;-75
2023/09/17 01:23:23;;;;;;;9.37;8.23;;;;;;;17.22;80.16;100767.69;5093561;28;20255;-75
2023/09/17 01:25:56;;;;;;;9.30;8.43;;;;;;;17.16;79.96;100758.47;5093559;28;20193;-75
2023/09/17 01:28:26;;;;;;;9.10;8.27;;;;;;;17.21;80.82;100768.72;5094118;28;20303;-75
2023/09/17 01:30:55;;;;;;;8.70;7.83;;;;;;;17.20;80.15;100759.75;5093769;28;20262;-75
2023/09/17 01:33:23;;;;;;;10.07;9.17;;;;;;;17.06;81.54;100758.03;5093075;28;20236;-74
2023/09/17 01:35:58;;;;;;;9.67;8.73;;;;;;;17.07;81.22;100759.72;5093443;28;20254;-74
2023/09/17 01:38:32;;;;;;;9.63;8.73;;;;;;;17.05;80.93;100763.66;5093475;28;20190;-75
2023/09/17 01:41:04;;;;;;;9.60;8.63;;;;;;;17.11;80.14;100766.38;5093434;28;20186;-75
2023/09/17 01:43:37;;;;;;;9.47;8.53;;;;;;;17.17;80.87;100764.72;5093338;28;20263;-75
2023/09/17 01:46:06;;;;;;;8.80;8.00;;;;;;;17.15;80.43;100767.66;5093386;28;20243;-75
2023/09/17 01:48:35;;;;;;;9.47;8.57;;;;;;;17.08;80.76;100761.38;5095938;28;20232;-75
2023/09/17 01:51:05;;;;;;;9.23;8.33;;;;;;;16.95;81.21;100765.91;5097451;28;20254;-75
2023/09/17 01:53:34;;;;;;;11.23;7.80;;;;;;;16.95;80.65;100765.91;5097011;28;20706;-75
2023/09/17 01:56:04;;;;;;;9.13;7.73;;;;;;;16.88;81.43;100755.06;5097579;28;20282;-75
2023/09/17 01:58:34;;;;;;;9.10;8.30;;;;;;;16.73;82.69;100754.34;5096964;28;20643;-75
2023/09/17 02:01:03;;;;;;;9.03;8.10;;;;;;;16.66;83.84;100754.31;5097356;28;20566;-75
2023/09/17 02:03:32;;;;;;;8.97;8.27;;;;;;;16.70;83.19;100752.03;5097372;28;20357;-75
2023/09/17 02:06:00;;;;;;;8.97;7.60;;;;;;;16.78;83.06;100759.97;5097192;28;20208;-75
2023/09/17 02:08:29;;;;;;;8.83;8.03;;;;;;;16.90;82.19;100755.69;5096956;28;20797;-75
2023/09/17 02:10:57;;;;;;;8.87;8.13;;;;;;;16.96;81.44;100762.16;5096768;28;20675;-75
2023/09/17 02:13:26;;;;;;;9.43;8.63;;;;;;;16.94;81.63;100756.13;5096956;28;20231;-76
2023/09/17 02:15:57;;;;;;;9.73;8.70;;;;;;;16.89;81.88;100750.47;5096998;28;20211;-75
2023/09/17 02:18:26;;;;;;;9.50;8.57;;;;;;;16.82;82.50;100755.00;5096997;28;20208;-75
2023/09/17 02:20:55;;;;;;;9.97;9.17;;;;;;;16.70;82.97;100752.88;5096866;28;20208;-74
2023/09/17 02:23:23;;;;;;;9.20;8.40;;;;;;;16.71;82.99;100751.81;5096774;28;20225;-74
2023/09/17 02:25:51;;;;;;;9.93;8.93;;;;;;;16.66;83.67;100756.19;5096492;28;20680;-75
2023/09/17 02:28:20;;;;;;;9.40;8.60;;;;;;;16.73;83.68;100752.47;5096622;28;20208;-75
2023/09/17 02:30:48;;;;;;;10.90;9.10;;;;;;;16.74;83.89;100753.31;5096673;28;20215;-75
2023/09/17 02:33:19;;;;;;;9.80;8.73;;;;;;;16.77;83.02;100749.38;5096347;28;20323;-75
2023/09/17 02:35:50;;;;;;;10.00;9.10;;;;;;;16.71;84.20;100749.13;5096631;28;20571;-75
2023/09/17 02:38:19;;;;;;;9.73;8.73;;;;;;;16.80;84.27;100760.63;5096283;28;20609;-75
2023/09/17 02:40:47;;;;;;;10.47;8.33;;;;;;;16.89;83.01;100755.88;5096534;28;20209;-75
2023/09/17 02:43:16;;;;;;;10.77;9.33;;;;;;;16.90;82.29;100754.84;5096403;28;20229;-75
2023/09/17 02:45:44;;;;;;;10.23;9.27;;;;;;;16.89;83.81;100755.88;5096415;28;20286;-75
2023/09/17 02:48:14;;;;;;;11.23;9.00;;;;;;;16.89;83.56;100750.47;5096060;28;20727;-75
2023/09/17 02:50:43;;;;;;;10.40;9.50;;;;;;;16.79;84.30;100750.00;5096244;28;20229;-75
2023/09/17 02:53:12;;;;;;;10.73;9.27;;;;;;;16.81;84.82;100750.66;5096410;28;20235;-75
2023/09/17 02:55:42;;;;;;;10.60;9.50;;;;;;;16.76;84.65;100750.41;5096225;28;20262;-75
2023/09/17 02:58:12;;;;;;;12.43;9.47;;;;;;;16.75;85.11;100756.88;5096097;28;20208;-75
2023/09/17 03:00:43;;;;;;;10.50;9.37;;;;;;;16.73;85.24;100751.66;5096204;28;20181;-76
2023/09/17 03:03:11;;;;;;;9.90;9.00;;;;;;;16.71;86.07;100751.81;5095983;28;20232;-75
2023/09/17 03:05:40;;;;;;;10.67;9.60;;;;;;;16.72;84.83;100750.81;5096249;28;20200;-75
2023/09/17 03:08:10;;;;;;;11.57;9.50;;;;;;;16.73;85.53;100752.47;5095950;28;20236;-75
2023/09/17 03:10:41;;;;;;;11.20;9.27;;;;;;;16.70;86.23;100750.19;5095874;28;20228;-75
2023/09/17 03:13:11;;;;;;;9.33;8.50;;;;;;;16.67;86.18;100745.19;5096094;28;20235;-75
2023/09/17 03:15:40;;;;;;;10.50;9.10;;;;;;;16.69;85.57;100745.78;5095814;28;20291;-75
2023/09/17 03:18:08;;;;;;;10.23;9.37;;;;;;;16.71;85.43;100749.13;5095809;28;20207;-75
2023/09/17 03:20:38;;;;;;;11.23;9.40;;;;;;;16.68;86.84;100749.53;5096565;28;20207;-75
2023/09/17 03:23:06;;;;;;;9.77;8.43;;;;;;;16.69;85.86;100747.66;5095322;28;20650;-75
2023/09/17 03:25:36;;;;;;;10.23;9.13;;;;;;;16.65;86.58;100739.13;5095650;28;20205;-75
2023/09/17 03:28:05;;;;;;;10.10;9.20;;;;;;;16.62;85.96;100742.22;5095614;28;20201;-75
2023/09/17 03:30:34;;;;;;;10.17;9.10;;;;;;;16.67;85.78;100742.47;5095135;28;20653;-75
2023/09/17 03:33:05;;;;;;;12.00;10.73;;;;;;;16.63;86.14;100733.09;5095293;28;20239;-74
2023/09/17 03:35:34;;;;;;;11.37;10.27;;;;;;;16.71;85.54;100735.59;5095463;28;20287;-74
2023/09/17 03:38:03;;;;;;;10.83;9.73;;;;;;;16.80;85.98;100748.97;5095370;28;20200;-74
2023/09/17 03:40:31;;;;;;;10.03;9.03;;;;;;;16.83;85.12;100751.28;5095339;28;20235;-75
2023/09/17 03:43:01;;;;;;;10.60;9.67;;;;;;;16.83;86.45;100753.97;5095204;28;20229;-74
2023/09/17 03:45:30;;;;;;;11.17;10.17;;;;;;;16.72;85.38;100756.22;5095171;28;20316;-74
2023/09/17 03:47:59;;;;;;;12.57;10.43;;;;;;;16.62;86.54;100750.34;5095157;28;20207;-75
2023/09/17 03:50:28;;;;;;;10.87;9.87;;;;;;;16.61;86.34;100754.06;5094755;28;20229;-75
2023/09/17 03:53:00;;;;;;;10.77;9.67;;;;;;;16.65;86.34;100749.94;5094679;28;20231;-75
2023/09/17 03:55:29;;;;;;;12.90;11.63;;;;;;;16.61;86.26;100751.34;5095350;28;20189;-75
2023/09/17 03:57:59;;;;;;;10.70;9.63;;;;;;;16.61;86.24;100748.66;5094986;28;20215;-75
2023/09/17 04:00:28;;;;;;;10.73;9.83;;;;;;;16.69;85.34;100762.03;5094940;28;20205;-75
2023/09/17 04:02:57;;;;;;;10.53;9.40;;;;;;;16.69;86.32;100762.03;5094837;28;20315;-75
2023/09/17 04:05:25;;;;;;;10.70;9.70;;;;;;;16.66;87.17;100759.72;5094864;28;20201;-75
2023/09/17 04:07:54;;;;;;;11.60;9.50;;;;;;;16.67;86.25;100757.84;5094817;28;20394;-75
2023/09/17 04:10:22;;;;;;;10.47;9.37;;;;;;;16.60;86.65;100762.38;5094723;28;20232;-75
2023/09/17 04:12:51;;;;;;;10.57;9.50;;;;;;;16.55;86.57;100762.09;5094660;28;20395;-75
2023/09/17 04:15:21;;;;;;;10.20;9.20;;;;;;;16.49;87.16;100761.03;5094697;28;20200;-75
2023/09/17 04:17:51;;;;;;;10.17;9.10;;;;;;;16.42;87.32;100757.44;5094348;28;20584;-75
2023/09/17 04:20:21;;;;;;;9.83;8.97;;;;;;;16.40;87.53;100758.69;5094563;28;20212;-75
2023/09/17 04:22:51;;;;;;;9.77;8.77;;;;;;;16.38;87.84;100756.16;5094438;28;20228;-75
2023/09/17 04:25:20;;;;;;;9.60;8.70;;;;;;;16.44;87.78;100763.47;5094485;28;20243;-75
2023/09/17 04:27:51;;;;;;;8.73;7.93;;;;;;;16.55;86.49;100762.09;5094441;28;20239;-75
2023/09/17 04:30:21;;;;;;;9.57;8.57;;;;;;;16.45;86.74;100765.16;5093990;28;20599;-75
2023/09/17 04:32:52;;;;;;;9.63;8.73;;;;;;;16.40;87.54;100758.69;5094064;28;20319;-75
2023/09/17 04:35:21;;;;;;;10.60;9.53;;;;;;;16.40;87.24;100756.81;5094366;28;20189;-75
2023/09/17 04:37:51;;;;;;;10.30;9.40;;;;;;;16.45;86.54;100759.75;5094276;28;20239;-75
2023/09/17 04:40:23;;;;;;;9.73;8.83;;;;;;;16.39;87.95;100762.41;5094200;28;20201;-75
2023/09/17 04:42:52;;;;;;;9.43;8.63;;;;;;;16.42;87.43;100768.25;5094134;28;20225;-75
2023/09/17 04:45:33;;;;;;;9.00;8.20;;;;;;;16.40;87.70;100770.34;5094124;28;20208;-75
2023/09/17 04:48:02;;;;;;;9.57;8.77;;;;;;;16.36;88.26;100776.31;5094137;28;20286;-75
2023/09/17 04:50:31;;;;;;;9.93;8.83;;;;;;;16.37;88.13;100778.81;5093965;28;20589;-75
2023/09/17 04:53:00;;;;;;;9.60;8.60;;;;;;;16.30;88.94;100771.72;5093838;28;20779;-75
2023/09/17 04:55:29;;;;;;;9.27;8.37;;;;;;;16.38;88.16;100776.94;5093661;28;20731;-75
2023/09/17 04:57:57;;;;;;;10.17;9.00;;;;;;;16.43;88.30;100785.31;5093939;28;20204;-75
2023/09/17 05:00:27;;;;;;;11.13;9.57;;;;;;;16.40;88.36;100780.31;5094103;28;20207;-74
2023/09/17 05:02:56;;;;;;;10.97;8.83;;;;;;;16.41;88.88;100777.41;5093819;28;20315;-75
2023/09/17 05:05:25;;;;;;;9.50;8.60;;;;;;;16.46;88.36;100788.47;5093864;28;20253;-75
2023/09/17 05:07:54;;;;;;;9.87;8.93;;;;;;;16.44;87.59;100795.91;5093462;28;20621;-75
2023/09/17 05:10:23;;;;;;;10.73;9.73;;;;;;;16.42;89.70;100784.47;5093328;28;20231;-75
2023/09/17 05:12:52;;;;;;;9.43;8.53;;;;;;;16.46;88.67;100788.47;5093677;28;20665;-75
2023/09/17 05:15:21;;;;;;;10.47;9.47;;;;;;;16.46;88.60;100798.44;5093706;28;20243;-75
2023/09/17 05:17:51;;;;;;;10.67;9.43;;;;;;;16.50;89.56;100802.41;5093645;28;20254;-74
2023/09/17 05:20:21;;;;;;;10.30;9.30;;;;;;;16.54;88.60;100799.09;5094778;28;20204;-74
2023/09/17 05:22:50;;;;;;;9.50;8.60;;;;;;;16.55;88.25;100806.22;5092699;28;20235;-75
2023/09/17 05:25:19;;;;;;;10.73;9.70;;;;;;;16.54;88.91;100809.91;5093249;28;20576;-74
2023/09/17 05:27:47;;;;;;;10.10;9.07;;;;;;;16.54;89.08;100806.41;5093552;28;20208;-74
2023/09/17 05:30:18;;;;;;;10.10;9.10;;;;;;;16.56;88.37;100809.75;5093204;28;20705;-75
2023/09/17 05:32:47;;;;;;;10.47;9.53;;;;;;;16.53;88.61;100813.66;5093278;28;20233;-75
2023/09/17 05:35:17;;;;;;;9.90;9.00;;;;;;;16.54;88.68;100818.03;5093534;28;20189;-75
2023/09/17 05:37:45;;;;;;;10.70;9.70;;;;;;;16.53;89.10;100816.38;5093409;28;20321;-75
2023/09/17 05:40:14;;;;;;;10.60;9.50;;;;;;;16.50;90.22;100822.16;5093165;28;20204;-75
2023/09/17 05:42:43;;;;;;;10.20;9.30;;;;;;;16.55;89.39;100817.03;5093644;28;20791;-74
2023/09/17 05:45:12;;;;;;;11.40;10.20;;;;;;;16.56;90.60;100821.41;5095795;28;20241;-75
2023/09/17 05:47:41;;;;;;;11.23;10.23;;;;;;;16.57;90.47;100819.53;5094601;28;20610;-75
2023/09/17 05:50:12;;;;;;;10.23;9.20;;;;;;;16.59;90.59;100825.56;5093252;28;20240;-75
2023/09/17 05:52:42;;;;;;;11.30;10.27;;;;;;;16.56;90.18;100818.72;5092969;28;20673;-75
2023/09/17 05:55:10;;;;;;;10.43;9.33;;;;;;;16.58;90.49;100822.03;5093299;28;20209;-75
2023/09/17 05:57:39;;;;;;;10.77;9.63;;;;;;;16.61;90.78;100824.34;5092946;28;20295;-75
2023/09/17 06:00:08;;;;;;;11.03;9.93;;;;;;;16.61;89.81;100824.34;5093297;28;20241;-75
2023/09/17 06:02:37;;;;;;;11.53;10.33;;;;;;;16.60;89.66;100828.09;5093154;28;20244;-75
2023/09/17 06:05:06;;;;;;;11.40;10.03;;;;;;;16.62;89.71;100826.03;5093483;28;20207;-75
2023/09/17 06:07:35;;;;;;;10.47;9.47;;;;;;;16.64;90.08;100823.13;5093251;28;20639;-75
2023/09/17 06:10:06;;;;;;;14.57;10.00;;;;;;;16.64;90.56;100818.53;5092848;28;20208;-75
2023/09/17 06:12:34;;;;;;;10.13;9.13;;;;;;;16.66;89.86;100827.31;5092773;28;20189;-75
2023/09/17 06:15:04;;;;;;;10.53;9.53;;;;;;;16.68;90.18;100825.22;5093087;28;20283;-75
2023/09/17 06:17:32;;;;;;;12.07;10.97;;;;;;;16.69;89.88;100821.50;5093078;28;20562;-75
2023/09/17 06:20:01;;;;;;;11.33;10.23;;;;;;;16.70;90.85;100820.47;5093323;28;20212;-75
2023/09/17 06:22:30;;;;;;;11.17;10.10;;;;;;;16.71;89.80;100815.91;5092911;28;20655;-75
2023/09/17 06:24:58;;;;;;;10.47;9.47;;;;;;;16.72;90.02;100810.28;5093033;28;20215;-75
2023/09/17 06:27:29;;;;;;;10.83;9.83;;;;;;;16.75;89.68;100808.22;5093014;28;20216;-75
2023/09/17 06:29:59;;;;;;;12.00;10.90;;;;;;;16.73;90.49;100820.06;5093002;28;20280;-75
2023/09/17 06:32:28;;;;;;;11.53;10.03;;;;;;;16.74;90.01;100815.50;5092692;28;20332;-75
2023/09/17 06:34:57;;;;;;;11.60;10.47;;;;;;;16.75;90.33;100813.63;5095572;28;20559;-75
2023/09/17 06:37:26;;;;;;;11.00;9.90;;;;;;;16.76;90.14;100815.28;5096271;28;20580;-75
2023/09/17 06:39:55;;;;;;;12.70;11.50;;;;;;;16.78;90.22;100811.34;5096534;28;20207;-75
2023/09/17 06:42:23;;;;;;;11.77;10.53;;;;;;;16.80;90.65;100817.41;5096402;28;20197;-75
2023/09/17 06:44:53;;;;;;;11.57;10.37;;;;;;;16.82;90.60;100809.06;5096168;28;20258;-75
2023/09/17 06:47:22;;;;;;;13.67;12.37;;;;;;;16.82;90.52;100809.91;5096626;28;20258;-75
2023/09/17 06:49:50;;;;;;;10.77;9.80;;;;;;;16.86;90.19;100810.34;5096363;28;20216;-75
2023/09/17 06:52:23;;;;;;;13.23;11.77;;;;;;;16.88;90.44;100800.19;5096174;28;20221;-75
2023/09/17 06:54:54;;;;;;;12.40;11.20;;;;;;;16.87;91.47;100806.63;5095996;28;20556;-75
2023/09/17 06:57:22;;;;;;;12.03;10.93;;;;;;;16.90;90.34;100806.22;5095944;28;20673;-75
2023/09/17 06:59:53;;;;;;;12.30;11.13;;;;;;;16.94;91.15;100808.34;5096294;28;20240;-75
2023/09/17 07:02:22;;;;;;;12.27;11.00;;;;;;;16.97;91.46;100809.81;5096072;28;20612;-75
2023/09/17 07:04:50;;;;;;;12.67;11.33;;;;;;;16.99;90.81;100810.41;5096053;28;20205;-75
2023/09/17 07:07:19;;;;;;;12.00;10.90;;;;;;;17.03;91.49;100798.16;5096074;28;20200;-75
2023/09/17 07:09:48;;;;;;;11.20;10.20;;;;;;;17.07;90.79;100796.75;5095990;28;20200;-75
2023/09/17 07:12:17;;;;;;;11.77;10.73;;;;;;;17.12;91.63;100802.41;5096077;28;20266;-75
2023/09/17 07:14:46;;;;;;;12.77;11.37;;;;;;;17.15;91.29;100796.59;5095565;28;20215;-75
2023/09/17 07:17:16;;;;;;;12.17;10.90;;;;;;;17.19;91.05;100805.97;5095870;28;20209;-75
2023/09/17 07:19:45;;;;;;;12.00;10.80;;;;;;;17.20;91.03;100819.28;5095755;28;20212;-75
2023/09/17 07:22:14;;;;;;;10.50;9.50;;;;;;;17.23;90.03;100812.63;5095724;28;20220;-75
2023/09/17 07:24:43;;;;;;;13.23;10.20;;;;;;;17.28;91.10;100812.88;5095980;28;20216;-75
2023/09/17 07:27:12;;;;;;;12.07;10.87;;;;;;;17.33;90.64;100812.28;5095379;28;20208;-75
2023/09/17 07:29:40;;;;;;;10.60;9.60;;;;;;;17.35;90.39;100816.44;5095590;28;20228;-75
2023/09/17 07:32:09;;;;;;;11.70;10.53;;;;;;;17.40;91.31;100808.53;5095443;28;20228;-75
2023/09/17 07:34:39;;;;;;;11.77;10.00;;;;;;;17.49;90.86;100803.78;5095058;28;20243;-75
2023/09/17 07:37:08;;;;;;;10.93;9.90;;;;;;;17.56;91.16;100816.34;5095482;28;20189;-75
2023/09/17 07:39:38;;;;;;;14.53;10.00;;;;;;;17.61;90.46;100815.69;5095383;28;20300;-75
2023/09/17 07:42:08;;;;;;;10.27;8.93;;;;;;;17.67;90.18;100821.13;5095584;28;20274;-76
2023/09/17 07:44:36;;;;;;;11.83;9.50;;;;;;;17.80;90.45;100808.69;5095472;28;20232;-76
2023/09/17 07:47:06;;;;;;;10.60;9.50;;;;;;;17.90;90.42;100809.94;5095076;28;20208;-76
2023/09/17 07:49:36;;;;;;;12.47;10.13;;;;;;;18.09;90.39;100808.28;5095498;28;20212;-76
2023/09/17 07:52:06;;;;;;;9.77;8.77;;;;;;;18.24;89.24;100801.63;5095013;28;20221;-76
2023/09/17 07:54:39;;;;;;;11.83;8.60;;;;;;;18.35;88.61;100802.06;5095103;28;20651;-76
2023/09/17 07:57:08;;;;;;;9.57;8.50;;;;;;;18.46;88.46;100806.84;5095483;28;20193;-76
2023/09/17 07:59:37;;;;;;;9.37;8.47;;;;;;;18.61;86.88;100807.47;5094816;28;20622;-76
2023/09/17 08:02:06;;;;;;;10.10;8.30;;;;;;;18.69;86.95;100799.97;5094984;28;20204;-76
2023/09/17 08:04:34;;;;;;;9.60;7.70;;;;;;;18.73;87.36;100794.94;5094913;28;20228;-76
2023/09/17 08:07:05;;;;;;;9.37;8.27;;;;;;;18.92;85.49;100798.63;5094937;28;20265;-76
2023/09/17 08:09:33;;;;;;;8.63;7.83;;;;;;;19.05;84.93;100804.84;5094841;28;20295;-76
2023/09/17 08:12:02;;;;;;;8.67;7.80;;;;;;;19.13;85.43;100811.94;5095038;28;20319;-76
2023/09/17 08:14:31;;;;;;;8.80;7.90;;;;;;;19.18;87.11;100809.38;5095207;28;20231;-76
2023/09/17 08:16:59;;;;;;;10.60;8.30;;;;;;;19.31;83.87;100806.66;5094929;28;20227;-76
2023/09/17 08:19:28;;;;;;;10.83;7.80;;;;;;;19.40;82.93;100812.66;5095194;28;20569;-76
2023/09/17 08:21:57;;;;;;;10.97;8.47;;;;;;;19.43;83.99;100804.94;5094901;28;20201;-75
2023/09/17 08:24:27;;;;;;;10.87;8.13;;;;;;;19.41;85.01;100800.78;5094837;28;20311;-76
2023/09/17 08:26:55;;;;;;;9.50;8.10;;;;;;;19.43;84.38;100806.81;5094946;28;20295;-76
2023/09/17 08:29:23;;;;;;;10.63;8.13;;;;;;;19.53;82.77;100812.63;5094370;28;20773;-76
2023/09/17 08:31:52;;;;;;;9.20;8.10;;;;;;;19.54;83.21;100804.25;5094630;28;20233;-76
2023/09/17 08:34:21;;;;;;;9.70;7.43;;;;;;;19.56;83.08;100804.03;5094278;28;20665;-76
2023/09/17 08:36:50;;;;;;;9.27;7.40;;;;;;;19.68;82.54;100808.56;5094225;28;20247;-76
2023/09/17 08:39:18;;;;;;;8.20;7.40;;;;;;;19.82;82.06;100813.91;5094537;28;20228;-76
2023/09/17 08:41:48;;;;;;;8.07;7.07;;;;;;;19.92;82.00;100804.25;5094436;28;20296;-76
2023/09/17 08:44:18;;;;;;;7.87;6.13;;;;;;;20.13;78.44;100803.03;5094581;28;20311;-75
2023/09/17 08:46:48;;;;;;;6.50;5.90;;;;;;;20.43;77.81;100803.22;5094484;28;20200;-76
2023/09/17 08:49:17;;;;;;;6.33;5.67;;;;;;;20.61;77.37;100800.56;5094572;28;20207;-77
2023/09/17 08:51:46;;;;;;;6.67;5.80;;;;;;;20.70;75.91;100805.47;5094384;28;20299;-76
2023/09/17 08:54:21;;;;;;;6.33;5.73;;;;;;;20.87;74.69;100794.84;5094081;28;20297;-76
2023/09/17 08:56:52;;;;;;;6.43;5.80;;;;;;;20.98;73.43;100791.38;5094235;28;20275;-76
2023/09/17 08:59:25;;;;;;;6.23;5.43;;;;;;;21.01;74.61;100790.06;5094225;28;20287;-76
2023/09/17 09:01:54;;;;;;;6.07;5.20;;;;;;;21.07;74.15;100789.16;5094076;28;20295;-76
2023/09/17 09:04:24;;;;;;;6.47;5.80;;;;;;;21.18;73.09;100793.88;5093981;28;20232;-76
2023/09/17 09:06:55;;;;;;;6.20;5.67;;;;;;;21.33;73.77;100799.78;5093879;28;20243;-76
2023/09/17 09:09:24;;;;;;;7.67;5.60;;;;;;;21.50;73.48;100802.69;5093963;28;20223;-76
2023/09/17 09:11:54;;;;;;;6.00;5.40;;;;;;;21.47;74.02;100795.78;5093580;28;20249;-75
2023/09/17 09:14:22;;;;;;;6.43;5.83;;;;;;;21.56;73.37;100794.41;5093477;28;20681;-75
2023/09/17 09:16:51;;;;;;;6.07;5.57;;;;;;;21.50;75.40;100795.34;5093856;28;20204;-75
2023/09/17 09:19:20;;;;;;;8.27;6.00;;;;;;;21.47;74.44;100790.34;5093929;28;20208;-75
2023/09/17 09:21:48;;;;;;;6.70;5.47;;;;;;;21.42;76.36;100790.22;5093731;28;20201;-75
2023/09/17 09:24:18;;;;;;;11.17;10.07;;;;;;;21.40;74.94;100784.19;5093616;28;20227;-76
2023/09/17 09:26:46;;;;;;;6.70;5.60;;;;;;;21.42;73.47;100787.50;5093699;28;20576;-76
2023/09/17 09:29:16;;;;;;;6.80;5.50;;;;;;;21.50;74.12;100783.63;5093803;28;20260;-76
2023/09/17 09:31:44;;;;;;;6.40;5.70;;;;;;;21.50;74.12;100787.19;5093685;28;20307;-76
2023/09/17 09:34:15;;;;;;;7.33;6.63;;;;;;;21.48;75.09;100783.84;5093016;28;20628;-76
2023/09/17 09:36:44;;;;;;;5.80;5.30;;;;;;;21.51;74.15;100780.66;5093525;28;20640;-76
2023/09/17 09:39:16;;;;;;;5.90;5.30;;;;;;;21.55;73.50;100791.91;5094399;28;20254;-76
2023/09/17 09:41:45;;;;;;;6.67;5.30;;;;;;;21.65;71.16;100782.13;5093560;28;20189;-76
2023/09/17 09:44:16;;;;;;;5.30;4.90;;;;;;;21.63;73.05;100789.72;5093615;28;20256;-76
2023/09/17 09:46:45;;;;;;;6.03;5.10;;;;;;;21.64;71.74;100788.63;5093246;28;20673;-76
2023/09/17 09:49:13;;;;;;;6.03;5.20;;;;;;;21.62;72.23;100793.50;5093087;28;20582;-76
2023/09/17 09:51:42;;;;;;;5.87;5.10;;;;;;;21.59;73.12;100788.50;5093627;28;20299;-76
2023/09/17 09:54:10;;;;;;;5.20;4.80;;;;;;;21.57;73.10;100792.53;5092940;28;20769;-76
2023/09/17 09:56:40;;;;;;;6.07;5.23;;;;;;;21.55;71.99;100792.75;5093345;28;20295;-76
2023/09/17 09:59:08;;;;;;;5.90;5.23;;;;;;;21.58;69.60;100784.13;5093346;28;20209;-76
2023/09/17 10:01:38;;;;;;;6.17;4.60;;;;;;;21.59;71.12;100785.78;5093337;28;20239;-76
2023/09/17 10:04:10;;;;;;;8.00;4.87;;;;;;;21.62;70.13;100782.59;5093437;28;20221;-75
2023/09/17 10:06:40;;;;;;;6.00;5.23;;;;;;;21.68;71.55;100780.81;5093400;28;20192;-75
2023/09/17 10:09:11;;;;;;;5.30;4.80;;;;;;;21.74;70.38;100780.75;5095129;28;20201;-76
2023/09/17 10:11:40;;;;;;;5.60;5.00;;;;;;;21.81;70.92;100779.81;5097241;28;20212;-76
2023/09/17 10:14:09;;;;;;;5.47;5.00;;;;;;;21.88;70.26;100769.66;5096975;28;20311;-76
2023/09/17 10:16:41;;;;;;;6.83;4.87;;;;;;;22.00;69.99;100767.78;5097073;28;20204;-76
2023/09/17 10:19:11;;;;;;;6.63;6.03;;;;;;;22.13;69.88;100767.56;5097293;28;20195;-76
2023/09/17 10:21:41;;;;;;;5.63;5.13;;;;;;;22.25;70.25;100760.25;5096662;28;20549;-76
2023/09/17 10:24:11;;;;;;;6.03;5.40;;;;;;;22.41;69.56;100753.25;5096858;28;20591;-75
2023/09/17 10:26:42;;;;;;;5.73;5.00;;;;;;;22.57;69.52;100758.81;5096849;28;20232;-76
2023/09/17 10:29:11;;;;;;;5.67;5.27;;;;;;;22.73;69.40;100757.31;5096592;28;20527;-76
2023/09/17 10:31:42;;;;;;;7.03;5.23;;;;;;;22.73;69.42;100752.69;5096772;28;20291;-76
2023/09/17 10:34:13;;;;;;;5.83;5.23;;;;;;;22.77;68.23;100744.00;5096451;28;20232;-76
2023/09/17 10:36:44;;;;;;;5.07;4.57;;;;;;;22.83;68.86;100751.22;5096804;28;20185;-76
2023/09/17 10:39:15;;;;;;;5.83;5.23;;;;;;;22.89;68.59;100750.25;5096385;28;20644;-76
2023/09/17 10:41:48;;;;;;;5.73;4.97;;;;;;;22.96;69.38;100746.34;5096726;28;20189;-75
2023/09/17 10:44:21;;;;;;;5.37;4.87;;;;;;;23.02;68.57;100747.25;5096521;28;20243;-76
2023/09/17 10:46:52;;;;;;;6.20;5.00;;;;;;;23.06;69.31;100745.72;5096271;28;20647;-76
2023/09/17 10:49:21;;;;;;;6.00;4.90;;;;;;;23.08;68.65;100746.31;5096570;28;20189;-77
2023/09/17 10:51:51;;;;;;;5.20;4.73;;;;;;;23.13;66.13;100738.22;5096572;28;20201;-76
2023/09/17 10:54:19;;;;;;;5.30;4.90;;;;;;;23.17;66.11;100747.59;5095924;28;20240;-76
2023/09/17 10:56:48;;;;;;;4.53;4.13;;;;;;;23.25;65.73;100741.75;5095975;28;20662;-76
2023/09/17 10:59:20;;;;;;;4.93;4.53;;;;;;;23.24;66.93;100742.81;5096301;28;20299;-76
2023/09/17 11:01:52;;;;;;;5.53;4.80;;;;;;;23.30;66.25;100741.00;5096537;28;20185;-76
2023/09/17 11:04:25;;;;;;;4.67;4.17;;;;;;;23.35;66.68;100733.75;5095822;28;20702;-76
2023/09/17 11:06:54;;;;;;;5.03;4.53;;;;;;;23.38;66.58;100735.97;5096179;28;20224;-76
2023/09/17 11:09:23;;;;;;;5.43;4.53;;;;;;;23.43;65.44;100730.63;5095759;28;20542;-76
2023/09/17 11:11:52;;;;;;;5.03;4.57;;;;;;;23.53;64.79;100740.91;5096061;28;20266;-76
2023/09/17 11:14:21;;;;;;;4.90;4.50;;;;;;;23.58;66.01;100739.13;5095796;28;20228;-76
2023/09/17 11:16:51;;;;;;;5.70;4.77;;;;;;;23.71;65.69;100747.00;5095891;28;20236;-76
2023/09/17 11:19:21;;;;;;;4.60;4.20;;;;;;;23.91;63.97;100742.97;5095493;28;20254;-76
2023/09/17 11:21:52;;;;;;;4.00;3.70;;;;;;;24.04;64.02;100753.59;5094780;28;20662;-76
2023/09/17 11:24:21;;;;;;;4.70;4.20;;;;;;;24.11;65.70;100746.06;5095695;28;20303;-76
2023/09/17 11:26:50;;;;;;;5.53;4.53;;;;;;;24.26;64.13;100745.47;5095436;28;20208;-76
2023/09/17 11:29:18;;;;;;;4.93;3.80;;;;;;;24.44;62.06;100737.84;5095718;28;20266;-76
2023/09/17 11:32:04;;;;;;;6.37;4.40;;;;;;;24.53;62.60;100747.28;5095368;28;20208;-76